Dennard, Arkansas
Current Conditions -  °F | °C
As of 9:15 PM on Monday 20 Oct 2014 (Local Time) from KFLP Reporting Station
Clear Clear  
Wind Chill: 63°   Ceiling: Unl
Heat Index: 63°   Visibility: 10mi
Dew Point: 54°   Wind: 3mph
Humidity: 72%   Direction: 230°SW
Pressure: 30.04"   Gusts: NA
Location:  35.76°N, 92.52°W
Report Text: KFLP 210215Z AUTO 23003KT 10SM CLR 17/12 A3004 RMK AO1
Loading
Personal Weather Stations






























Interactive Weather Map
Tropical Storm Tracking
New forecast layout! Learn more

10-Day Weather Forecast

Advertisements
Track Severe Weather on mobile